createdAt,value
2023-01-08T00:00:45.226Z,1.9
2023-01-08T00:01:45.779Z,2.0
2023-01-08T00:02:46.437Z,1.7
2023-01-08T00:03:47.097Z,1.7
2023-01-08T00:04:47.715Z,1.9
2023-01-08T00:05:48.307Z,1.6
2023-01-08T00:06:48.900Z,1.8
2023-01-08T00:07:49.501Z,1.8
2023-01-08T00:08:50.087Z,1.9
2023-01-08T00:09:50.720Z,2.0
2023-01-08T00:10:51.282Z,1.6
2023-01-08T00:11:51.933Z,1.7
2023-01-08T00:12:52.469Z,1.9
2023-01-08T00:13:53.065Z,4.5
2023-01-08T00:14:53.652Z,1.9
2023-01-08T00:15:54.272Z,1.9
2023-01-08T00:16:54.944Z,2.2
2023-01-08T00:17:55.502Z,2.1
2023-01-08T00:18:56.095Z,1.8
2023-01-08T00:19:56.687Z,2.0
2023-01-08T00:20:57.279Z,2.2
2023-01-08T00:21:57.871Z,2.0
2023-01-08T00:22:58.479Z,1.9
2023-01-08T00:23:59.080Z,1.8
2023-01-08T00:24:59.690Z,2.0
2023-01-08T00:26:00.281Z,2.0
2023-01-08T00:27:00.947Z,1.5
2023-01-08T00:28:01.480Z,1.8
2023-01-08T00:29:02.073Z,2.1
2023-01-08T00:30:02.684Z,1.7
2023-01-08T00:31:03.831Z,1.7
2023-01-08T00:32:03.888Z,1.8
2023-01-08T00:33:04.483Z,2.0
2023-01-08T00:34:05.088Z,1.7
2023-01-08T00:35:05.683Z,1.8
2023-01-08T00:36:06.273Z,1.7
2023-01-08T00:37:06.866Z,1.9
2023-01-08T00:38:07.464Z,1.8
2023-01-08T00:39:08.050Z,1.9
2023-01-08T00:40:08.644Z,2.0
2023-01-08T00:41:09.236Z,1.7
2023-01-08T00:42:09.896Z,2.0
2023-01-08T00:43:10.432Z,2.3
2023-01-08T00:44:11.022Z,1.9
2023-01-08T00:45:11.614Z,1.7
2023-01-08T00:46:12.261Z,1.8
2023-01-08T00:47:12.867Z,1.8
2023-01-08T00:48:13.458Z,1.7
2023-01-08T00:49:14.149Z,1.9
2023-01-08T00:50:14.739Z,1.9
2023-01-08T00:51:15.339Z,2.0
2023-01-08T00:52:15.925Z,2.0
2023-01-08T00:53:16.513Z,2.0
2023-01-08T00:54:17.109Z,1.7
2023-01-08T00:55:17.703Z,1.9
2023-01-08T00:56:18.295Z,1.8
2023-01-08T00:57:18.956Z,1.8
2023-01-08T00:58:19.496Z,1.9
2023-01-08T00:59:20.099Z,2.3
2023-01-08T01:00:20.683Z,1.7
2023-01-08T01:01:21.422Z,2.0
2023-01-08T01:02:21.958Z,2.1
2023-01-08T01:03:22.511Z,2.0
2023-01-08T01:04:23.183Z,2.2
2023-01-08T01:05:23.804Z,2.2
2023-01-08T01:06:24.404Z,2.0
2023-01-08T01:07:25.000Z,2.2
2023-01-08T01:08:25.591Z,2.0
2023-01-08T01:09:26.192Z,1.8
2023-01-08T01:10:26.798Z,1.9
2023-01-08T01:11:27.397Z,1.9
2023-01-08T01:12:28.058Z,2.2
2023-01-08T01:13:28.597Z,1.8
2023-01-08T01:14:29.211Z,2.1
2023-01-08T01:15:29.806Z,2.1
2023-01-08T01:16:30.435Z,1.8
2023-01-08T01:17:30.992Z,1.9
2023-01-08T01:18:31.661Z,1.9
2023-01-08T01:19:32.223Z,1.7
2023-01-08T01:20:32.800Z,1.7
2023-01-08T01:21:33.407Z,1.7
2023-01-08T01:22:33.988Z,1.6
2023-01-08T01:23:34.581Z,2.2
2023-01-08T01:24:35.171Z,1.7
2023-01-08T01:25:35.765Z,1.9
2023-01-08T01:26:36.376Z,1.9
2023-01-08T01:27:37.077Z,2.1
2023-01-08T01:28:37.604Z,2.0
2023-01-08T01:29:38.221Z,1.9
2023-01-08T01:30:38.847Z,1.8
2023-01-08T01:31:39.395Z,1.8
2023-01-08T01:32:40.032Z,2.1
2023-01-08T01:33:40.627Z,2.1
2023-01-08T01:34:41.225Z,1.9
2023-01-08T01:35:41.813Z,1.9
2023-01-08T01:36:42.406Z,1.8
2023-01-08T01:37:42.994Z,1.9
2023-01-08T01:38:43.585Z,1.8
2023-01-08T01:39:44.184Z,1.6
2023-01-08T01:40:44.769Z,1.9
2023-01-08T01:41:45.370Z,1.7
2023-01-08T01:42:46.025Z,1.8
2023-01-08T01:43:46.565Z,1.6
2023-01-08T01:44:47.153Z,1.8
2023-01-08T01:45:47.800Z,2.0
2023-01-08T01:46:48.336Z,1.8
2023-01-08T01:47:48.926Z,1.8
2023-01-08T01:48:49.519Z,1.7
2023-01-08T01:49:50.113Z,1.5
2023-01-08T01:50:50.706Z,1.9
2023-01-08T01:51:51.320Z,1.6
2023-01-08T01:52:51.910Z,1.4
2023-01-08T01:53:52.499Z,1.9
2023-01-08T01:54:53.097Z,1.8
2023-01-08T01:55:53.704Z,1.6
2023-01-08T01:56:54.322Z,2.5
2023-01-08T01:57:54.939Z,1.7
2023-01-08T01:58:55.518Z,1.9
2023-01-08T01:59:56.106Z,1.5
2023-01-08T02:00:56.739Z,1.7
2023-01-08T02:01:57.406Z,1.7
2023-01-08T02:02:58.009Z,1.7
2023-01-08T02:03:58.656Z,1.5
2023-01-08T02:04:59.226Z,1.5
2023-01-08T02:05:59.837Z,1.7
2023-01-08T02:07:00.432Z,1.5
2023-01-08T02:08:01.021Z,1.6
2023-01-08T02:09:01.619Z,1.6
2023-01-08T02:10:02.212Z,1.8
2023-01-08T02:11:02.822Z,1.4
2023-01-08T02:12:03.413Z,1.6
2023-01-08T02:13:04.069Z,2.5
2023-01-08T02:14:04.614Z,2.1
2023-01-08T02:15:05.199Z,1.7
2023-01-08T02:16:05.794Z,1.8
2023-01-08T02:17:06.451Z,1.6
2023-01-08T02:18:07.017Z,1.9
2023-01-08T02:19:07.615Z,1.6
2023-01-08T02:20:08.206Z,1.6
2023-01-08T02:21:08.810Z,2.2
2023-01-08T02:22:09.392Z,3.6
2023-01-08T02:23:09.984Z,2.0
2023-01-08T02:24:10.587Z,1.5
2023-01-08T02:25:11.191Z,1.4
2023-01-08T02:26:11.792Z,1.5
2023-01-08T02:27:12.380Z,1.7
2023-01-08T02:28:13.043Z,1.3
2023-01-08T02:29:13.580Z,1.6
2023-01-08T02:30:14.182Z,1.7
2023-01-08T02:31:14.856Z,1.6
2023-01-08T02:32:15.424Z,1.8
2023-01-08T02:33:16.024Z,1.6
2023-01-08T02:34:16.620Z,1.5
2023-01-08T02:35:17.224Z,1.8
2023-01-08T02:36:17.820Z,1.9
2023-01-08T02:37:18.429Z,1.6
2023-01-08T02:38:19.015Z,1.4
2023-01-08T02:39:19.623Z,1.9
2023-01-08T02:40:20.226Z,1.9
2023-01-08T02:41:20.807Z,1.8
2023-01-08T02:42:21.418Z,1.7
2023-01-08T02:43:22.068Z,1.8
2023-01-08T02:44:22.601Z,1.8
2023-01-08T02:45:23.191Z,1.8
2023-01-08T02:46:23.836Z,1.6
2023-01-08T02:47:24.397Z,1.6
2023-01-08T02:48:24.990Z,1.7
2023-01-08T02:49:25.583Z,1.8
2023-01-08T02:50:26.180Z,1.8
2023-01-08T02:51:26.769Z,1.7
2023-01-08T02:52:27.364Z,1.8
2023-01-08T02:53:27.956Z,1.7
2023-01-08T02:54:28.547Z,2.2
2023-01-08T02:55:29.142Z,2.5
2023-01-08T02:56:29.732Z,2.3
2023-01-08T02:57:30.324Z,1.9
2023-01-08T02:58:31.131Z,1.7
2023-01-08T02:59:31.645Z,1.8
2023-01-08T03:00:32.244Z,4.8
2023-01-08T03:01:32.899Z,2.1
2023-01-08T03:02:33.560Z,1.8
2023-01-08T03:03:34.160Z,1.5
2023-01-08T03:04:34.858Z,1.4
2023-01-08T03:05:35.453Z,1.6
2023-01-08T03:06:36.039Z,1.6
2023-01-08T03:07:36.631Z,1.8
2023-01-08T03:08:37.225Z,1.4
2023-01-08T03:09:37.815Z,1.9
2023-01-08T03:10:38.409Z,1.7
2023-01-08T03:11:39.003Z,1.9
2023-01-08T03:12:39.594Z,1.3
2023-01-08T03:13:40.259Z,1.6
2023-01-08T03:14:40.793Z,1.7
2023-01-08T03:15:41.405Z,1.3
2023-01-08T03:16:42.089Z,1.7
2023-01-08T03:17:42.690Z,1.6
2023-01-08T03:18:43.283Z,1.7
2023-01-08T03:19:43.893Z,1.9
2023-01-08T03:20:44.476Z,1.6
2023-01-08T03:21:45.059Z,1.6
2023-01-08T03:22:45.660Z,1.6
2023-01-08T03:23:46.247Z,1.4
2023-01-08T03:24:46.843Z,1.9
2023-01-08T03:25:47.438Z,1.5
2023-01-08T03:26:48.027Z,1.3
2023-01-08T03:27:48.620Z,1.4
2023-01-08T03:28:49.277Z,1.5
2023-01-08T03:29:49.821Z,1.7
2023-01-08T03:30:50.465Z,1.5
2023-01-08T03:31:51.018Z,1.2
2023-01-08T03:32:51.619Z,1.6
2023-01-08T03:33:52.200Z,1.5
2023-01-08T03:34:52.813Z,1.3
2023-01-08T03:35:53.423Z,1.3
2023-01-08T03:36:53.999Z,1.4
2023-01-08T03:37:54.594Z,1.5
2023-01-08T03:38:55.185Z,1.4
2023-01-08T03:39:55.783Z,1.4
2023-01-08T03:40:56.376Z,1.3
2023-01-08T03:41:56.983Z,1.4
2023-01-08T03:42:57.578Z,1.4
2023-01-08T03:43:58.240Z,1.4
2023-01-08T03:44:58.775Z,1.5
2023-01-08T03:45:59.435Z,1.3
2023-01-08T03:46:59.979Z,1.3
2023-01-08T03:48:00.600Z,1.4
2023-01-08T03:49:01.180Z,1.5
2023-01-08T03:50:01.781Z,1.5
2023-01-08T03:51:02.367Z,1.4
2023-01-08T03:52:02.959Z,1.2
2023-01-08T03:53:03.551Z,1.1
2023-01-08T03:54:04.143Z,1.6
2023-01-08T03:55:04.734Z,1.2
2023-01-08T03:56:05.328Z,1.3
2023-01-08T03:57:05.938Z,1.3
2023-01-08T03:58:06.553Z,1.4
2023-01-08T03:59:07.253Z,1.5
2023-01-08T04:00:07.775Z,1.4
2023-01-08T04:01:08.413Z,1.2
2023-01-08T04:02:09.177Z,1.5
2023-01-08T04:03:09.790Z,1.4
2023-01-08T04:04:10.413Z,1.4
2023-01-08T04:05:10.971Z,1.5
2023-01-08T04:06:11.560Z,1.3
2023-01-08T04:07:12.165Z,1.4
2023-01-08T04:08:12.748Z,1.5
2023-01-08T04:09:13.362Z,1.6
2023-01-08T04:10:13.927Z,1.3
2023-01-08T04:11:14.522Z,1.6
2023-01-08T04:12:15.114Z,1.5
2023-01-08T04:13:15.708Z,1.3
2023-01-08T04:14:16.370Z,1.2
2023-01-08T04:15:16.918Z,1.2
2023-01-08T04:16:17.584Z,1.3
2023-01-08T04:17:18.121Z,1.4
2023-01-08T04:18:18.735Z,1.5
2023-01-08T04:19:19.326Z,1.2
2023-01-08T04:20:19.943Z,1.6
2023-01-08T04:21:20.545Z,1.5
2023-01-08T04:22:21.125Z,1.4
2023-01-08T04:23:21.735Z,1.4
2023-01-08T04:24:22.354Z,1.4
2023-01-08T04:25:22.943Z,1.5
2023-01-08T04:26:23.573Z,1.5
2023-01-08T04:27:24.160Z,1.4
2023-01-08T04:28:24.763Z,1.6
2023-01-08T04:29:25.428Z,1.1
2023-01-08T04:30:25.960Z,1.7
2023-01-08T04:31:26.632Z,1.3
2023-01-08T04:32:27.191Z,1.1
2023-01-08T04:33:27.807Z,1.5
2023-01-08T04:34:28.393Z,1.6
2023-01-08T04:35:28.986Z,1.5
2023-01-08T04:36:29.588Z,1.4
2023-01-08T04:37:30.172Z,1.4
2023-01-08T04:38:30.767Z,1.6
2023-01-08T04:39:31.365Z,1.1
2023-01-08T04:40:31.952Z,1.1
2023-01-08T04:41:32.549Z,1.2
2023-01-08T04:42:33.155Z,1.0
2023-01-08T04:43:33.749Z,1.4
2023-01-08T04:44:34.411Z,1.3
2023-01-08T04:45:34.958Z,1.2
2023-01-08T04:46:35.621Z,1.2
2023-01-08T04:47:36.210Z,1.5
2023-01-08T04:48:36.803Z,1.3
2023-01-08T04:49:37.396Z,3.8
2023-01-08T04:50:37.987Z,3.2
2023-01-08T04:51:38.584Z,1.4
2023-01-08T04:52:39.175Z,1.5
2023-01-08T04:53:39.775Z,5.1
2023-01-08T04:54:40.364Z,1.4
2023-01-08T04:55:40.945Z,1.6
2023-01-08T04:56:41.543Z,1.3
2023-01-08T04:57:42.135Z,1.3
2023-01-08T04:58:42.731Z,1.5
2023-01-08T04:59:43.450Z,1.1
2023-01-08T05:00:43.954Z,1.6
2023-01-08T05:01:44.648Z,1.1
2023-01-08T05:02:45.478Z,1.0
2023-01-08T05:03:46.159Z,1.1
2023-01-08T05:04:46.755Z,1.3
2023-01-08T05:05:49.855Z,1.2
2023-01-08T05:06:48.933Z,1.2
2023-01-08T05:07:49.530Z,1.0
2023-01-08T05:08:50.118Z,1.2
2023-01-08T05:09:50.729Z,1.1
2023-01-08T05:10:51.323Z,1.4
2023-01-08T05:11:51.916Z,1.1
2023-01-08T05:12:52.515Z,1.1
2023-01-08T05:13:53.113Z,1.0
2023-01-08T05:14:53.699Z,1.6
2023-01-08T05:15:54.326Z,1.1
2023-01-08T05:16:54.885Z,1.1
2023-01-08T05:17:55.499Z,0.9
2023-01-08T05:18:56.093Z,1.3
2023-01-08T05:19:56.687Z,1.2
2023-01-08T05:20:57.297Z,1.0
2023-01-08T05:21:57.887Z,1.2
2023-01-08T05:22:58.541Z,0.9
2023-01-08T05:23:59.168Z,1.0
2023-01-08T05:24:59.777Z,1.2
2023-01-08T05:26:00.384Z,1.1
2023-01-08T05:27:00.965Z,1.1
2023-01-08T05:28:01.575Z,0.9
2023-01-08T05:29:02.171Z,1.0
2023-01-08T05:30:03.311Z,1.1
2023-01-08T05:31:03.850Z,1.1
2023-01-08T05:32:04.425Z,1.2
2023-01-08T05:33:05.018Z,1.1
2023-01-08T05:34:05.605Z,1.3
2023-01-08T05:35:06.200Z,1.3
2023-01-08T05:36:06.788Z,1.3
2023-01-08T05:37:07.380Z,1.3
2023-01-08T05:38:07.997Z,1.2
2023-01-08T05:39:08.585Z,1.4
2023-01-08T05:40:09.179Z,1.3
2023-01-08T05:41:09.769Z,1.6
2023-01-08T05:42:10.358Z,1.5
2023-01-08T05:43:10.970Z,1.7
2023-01-08T05:44:11.561Z,1.6
2023-01-08T05:45:12.231Z,1.9
2023-01-08T05:46:12.799Z,1.9
2023-01-08T05:47:13.381Z,2.0
2023-01-08T05:48:13.972Z,2.0
2023-01-08T05:49:16.846Z,2.3
2023-01-08T05:50:16.169Z,3.1
2023-01-08T05:51:16.755Z,2.5
2023-01-08T05:52:17.338Z,2.3
2023-01-08T05:53:17.931Z,2.5
2023-01-08T05:54:18.524Z,2.5
2023-01-08T05:55:19.112Z,2.2
2023-01-08T05:56:19.704Z,2.6
2023-01-08T05:57:20.321Z,3.2
2023-01-08T05:58:20.945Z,2.1
2023-01-08T05:59:21.530Z,2.6
2023-01-08T06:00:22.194Z,2.8
2023-01-08T06:01:22.811Z,2.4
2023-01-08T06:02:23.352Z,2.4
2023-01-08T06:03:23.927Z,2.5
2023-01-08T06:04:24.697Z,2.6
2023-01-08T06:05:25.136Z,2.5
2023-01-08T06:06:25.754Z,2.1
2023-01-08T06:07:26.354Z,2.5
2023-01-08T06:08:26.950Z,2.5
2023-01-08T06:09:27.539Z,2.4
2023-01-08T06:10:28.132Z,2.6
2023-01-08T06:11:28.744Z,2.3
2023-01-08T06:12:29.339Z,2.5
2023-01-08T06:13:29.933Z,2.5
2023-01-08T06:14:30.526Z,2.2
2023-01-08T06:15:31.135Z,2.6
2023-01-08T06:16:31.710Z,2.5
2023-01-08T06:17:32.312Z,2.2
2023-01-08T06:18:32.904Z,2.3
2023-01-08T06:19:33.497Z,2.0
2023-01-08T06:20:34.107Z,1.9
2023-01-08T06:21:34.681Z,2.0
2023-01-08T06:22:35.267Z,1.7
2023-01-08T06:23:35.874Z,1.8
2023-01-08T06:24:36.481Z,2.2
2023-01-08T06:25:37.072Z,1.8
2023-01-08T06:26:37.663Z,1.9
2023-01-08T06:27:40.474Z,1.6
2023-01-08T06:28:39.856Z,1.5
2023-01-08T06:29:40.452Z,1.5
2023-01-08T06:30:41.108Z,1.6
2023-01-08T06:31:41.774Z,1.7
2023-01-08T06:32:42.358Z,1.8
2023-01-08T06:33:42.953Z,1.2
2023-01-08T06:34:43.547Z,1.4
2023-01-08T06:35:44.139Z,1.6
2023-01-08T06:36:44.731Z,1.6
2023-01-08T06:37:45.321Z,1.7
2023-01-08T06:38:46.308Z,1.4
2023-01-08T06:39:46.811Z,1.8
2023-01-08T06:40:47.410Z,1.4
2023-01-08T06:41:48.015Z,1.4
2023-01-08T06:42:48.609Z,1.2
2023-01-08T06:43:49.207Z,1.3
2023-01-08T06:44:49.791Z,1.5
2023-01-08T06:45:50.453Z,1.2
2023-01-08T06:46:51.089Z,1.3
2023-01-08T06:47:51.601Z,1.4
2023-01-08T06:48:52.215Z,1.4
2023-01-08T06:49:52.818Z,1.2
2023-01-08T06:50:53.421Z,1.2
2023-01-08T06:51:54.014Z,1.2
2023-01-08T06:52:54.641Z,1.4
2023-01-08T06:53:55.219Z,1.3
2023-01-08T06:54:55.808Z,1.1
2023-01-08T06:55:56.399Z,1.2
2023-01-08T06:56:56.994Z,1.1
2023-01-08T06:57:57.609Z,1.5
2023-01-08T06:58:58.196Z,1.7
2023-01-08T06:59:58.806Z,1.3
2023-01-08T07:00:59.482Z,1.3
2023-01-08T07:02:00.197Z,1.4
2023-01-08T07:03:00.974Z,1.1
2023-01-08T07:04:01.590Z,1.3
2023-01-08T07:05:02.181Z,1.1
2023-01-08T07:06:02.781Z,1.0
2023-01-08T07:07:03.379Z,1.0
2023-01-08T07:08:03.976Z,1.2
2023-01-08T07:09:04.569Z,1.0
2023-01-08T07:10:05.160Z,1.1
2023-01-08T07:11:05.771Z,1.2
2023-01-08T07:12:06.349Z,1.1
2023-01-08T07:13:06.956Z,1.1
2023-01-08T07:14:07.551Z,1.0
2023-01-08T07:15:08.148Z,1.3
2023-01-08T07:16:08.956Z,1.2
2023-01-08T07:17:09.346Z,1.4
2023-01-08T07:18:09.959Z,2.2
2023-01-08T07:19:10.567Z,2.2
2023-01-08T07:20:11.171Z,1.5
2023-01-08T07:21:11.765Z,0.9
2023-01-08T07:22:12.360Z,1.2
2023-01-08T07:23:12.968Z,1.2
2023-01-08T07:24:13.576Z,1.0
2023-01-08T07:25:14.148Z,1.0
2023-01-08T07:26:14.746Z,1.3
2023-01-08T07:27:15.349Z,1.1
2023-01-08T07:28:15.950Z,1.4
2023-01-08T07:29:16.574Z,1.4
2023-01-08T07:30:28.857Z,1.2
2023-01-08T07:31:18.913Z,0.9
2023-01-08T07:32:19.343Z,1.3
2023-01-08T07:33:19.935Z,1.2
2023-01-08T07:34:20.530Z,1.1
2023-01-08T07:35:21.128Z,1.3
2023-01-08T07:36:21.742Z,1.3
2023-01-08T07:37:22.336Z,1.0
2023-01-08T07:38:22.935Z,1.1
2023-01-08T07:39:23.529Z,1.1
2023-01-08T07:40:24.142Z,1.0
2023-01-08T07:41:24.721Z,1.0
2023-01-08T07:42:25.341Z,1.2
2023-01-08T07:43:25.937Z,1.0
2023-01-08T07:44:26.531Z,1.1
2023-01-08T07:45:27.129Z,1.2
2023-01-08T07:46:27.907Z,0.9
2023-01-08T07:47:28.337Z,1.1
2023-01-08T07:48:28.931Z,1.2
2023-01-08T07:49:29.526Z,1.1
2023-01-08T07:50:30.121Z,1.1
2023-01-08T07:51:30.723Z,1.0
2023-01-08T07:52:31.334Z,1.0
2023-01-08T07:53:31.929Z,0.9
2023-01-08T07:54:32.527Z,1.2
2023-01-08T07:55:33.148Z,1.1
2023-01-08T07:56:33.751Z,1.0
2023-01-08T07:57:34.344Z,0.7
2023-01-08T07:58:34.936Z,0.9
2023-01-08T07:59:35.546Z,1.2
2023-01-08T08:00:36.146Z,0.8
2023-01-08T08:01:37.017Z,0.8
2023-01-08T08:02:37.459Z,0.8
2023-01-08T08:03:38.140Z,0.7
2023-01-08T08:04:38.725Z,0.8
2023-01-08T08:05:39.337Z,0.9
2023-01-08T08:06:39.935Z,1.0
2023-01-08T08:07:40.530Z,0.7
2023-01-08T08:08:42.288Z,0.9
2023-01-08T08:09:42.725Z,0.9
2023-01-08T08:10:43.328Z,1.1
2023-01-08T08:11:43.932Z,0.6
2023-01-08T08:12:44.529Z,0.6
2023-01-08T08:13:45.173Z,0.8
2023-01-08T08:14:45.735Z,0.8
2023-01-08T08:15:46.402Z,0.7
2023-01-08T08:16:47.011Z,0.6
2023-01-08T08:17:47.559Z,0.6
2023-01-08T08:18:48.153Z,0.6
2023-01-08T08:19:48.750Z,0.6
2023-01-08T08:20:49.356Z,0.6
2023-01-08T08:21:49.946Z,0.8
2023-01-08T08:22:50.546Z,0.6
2023-01-08T08:23:51.140Z,0.8
2023-01-08T08:24:51.763Z,0.8
2023-01-08T08:25:52.382Z,0.6
2023-01-08T08:26:52.968Z,0.6
2023-01-08T08:27:53.567Z,0.8
2023-01-08T08:28:54.175Z,0.4
2023-01-08T08:29:54.761Z,0.7
2023-01-08T08:30:55.402Z,0.7
2023-01-08T08:31:56.056Z,0.8
2023-01-08T08:32:56.602Z,0.8
2023-01-08T08:33:57.200Z,0.9
2023-01-08T08:34:57.796Z,0.9
2023-01-08T08:35:58.405Z,0.6
2023-01-08T08:36:58.992Z,0.8
2023-01-08T08:37:59.599Z,1.2
2023-01-08T08:39:00.185Z,1.6
2023-01-08T08:40:00.791Z,1.4
2023-01-08T08:41:01.388Z,1.2
2023-01-08T08:42:01.982Z,1.1
2023-01-08T08:43:02.594Z,1.2
2023-01-08T08:44:03.215Z,0.8
2023-01-08T08:45:03.839Z,1.1
2023-01-08T08:46:04.425Z,1.1
2023-01-08T08:47:05.006Z,1.0
2023-01-08T08:48:05.611Z,1.0
2023-01-08T08:49:06.221Z,1.4
2023-01-08T08:50:06.819Z,0.8
2023-01-08T08:51:07.414Z,0.8
2023-01-08T08:52:08.014Z,0.9
2023-01-08T08:53:08.610Z,0.8
2023-01-08T08:54:09.207Z,0.7
2023-01-08T08:55:09.803Z,0.7
2023-01-08T08:56:10.421Z,1.2
2023-01-08T08:57:11.016Z,1.0
2023-01-08T08:58:11.619Z,0.7
2023-01-08T08:59:12.211Z,0.6
2023-01-08T09:00:12.807Z,0.5
2023-01-08T09:01:13.466Z,0.5
2023-01-08T09:02:14.308Z,0.6
2023-01-08T09:03:14.700Z,0.6
2023-01-08T09:04:15.244Z,0.5
2023-01-08T09:05:15.842Z,0.6
2023-01-08T09:06:16.438Z,0.5
2023-01-08T09:07:17.064Z,0.6
2023-01-08T09:08:17.662Z,0.6
2023-01-08T09:09:18.238Z,0.6
2023-01-08T09:10:18.838Z,0.5
2023-01-08T09:11:19.431Z,0.6
2023-01-08T09:12:20.033Z,0.6
2023-01-08T09:13:20.626Z,0.6
2023-01-08T09:14:21.232Z,0.5
2023-01-08T09:15:21.822Z,0.5
2023-01-08T09:16:22.475Z,0.5
2023-01-08T09:17:23.092Z,0.6
2023-01-08T09:18:23.643Z,0.6
2023-01-08T09:19:24.230Z,0.5
2023-01-08T09:20:24.891Z,0.5
2023-01-08T09:21:25.470Z,0.6
2023-01-08T09:22:26.068Z,0.5
2023-01-08T09:23:26.657Z,0.5
2023-01-08T09:24:27.258Z,0.7
2023-01-08T09:25:27.859Z,0.6
2023-01-08T09:26:28.450Z,0.5
2023-01-08T09:27:29.047Z,0.5
2023-01-08T09:28:29.649Z,0.5
2023-01-08T09:29:30.263Z,0.6
2023-01-08T09:30:30.873Z,0.5
2023-01-08T09:31:31.570Z,0.6
2023-01-08T09:32:32.181Z,0.5
2023-01-08T09:33:32.725Z,0.5
2023-01-08T09:34:33.351Z,0.5
2023-01-08T09:35:33.940Z,0.6
2023-01-08T09:36:34.537Z,0.6
2023-01-08T09:37:35.142Z,0.5
2023-01-08T09:38:35.732Z,0.6
2023-01-08T09:39:36.329Z,0.5
2023-01-08T09:40:36.924Z,0.6
2023-01-08T09:41:37.538Z,0.5
2023-01-08T09:42:38.129Z,0.5
2023-01-08T09:43:38.756Z,0.5
2023-01-08T09:44:39.338Z,0.5
2023-01-08T09:45:39.936Z,0.5
2023-01-08T09:46:40.608Z,0.5
2023-01-08T09:47:41.272Z,0.7
2023-01-08T09:48:41.797Z,0.6
2023-01-08T09:49:42.391Z,0.5
2023-01-08T09:50:42.983Z,0.5
2023-01-08T09:51:43.585Z,0.5
2023-01-08T09:52:44.183Z,0.7
2023-01-08T09:53:44.771Z,0.4
2023-01-08T09:54:45.376Z,0.8
2023-01-08T09:55:45.973Z,0.5
2023-01-08T09:56:46.567Z,0.7
2023-01-08T09:57:47.163Z,0.6
2023-01-08T09:58:47.761Z,0.6
2023-01-08T09:59:48.356Z,0.6
2023-01-08T10:00:49.049Z,0.6
2023-01-08T10:01:49.734Z,0.7
2023-01-08T10:02:50.442Z,0.6
2023-01-08T10:03:50.929Z,0.7
2023-01-08T10:04:54.306Z,0.5
2023-01-08T10:05:53.119Z,0.6
2023-01-08T10:06:53.714Z,0.5
2023-01-08T10:07:54.325Z,0.6
2023-01-08T10:08:54.918Z,0.5
2023-01-08T10:09:55.514Z,0.5
2023-01-08T10:10:56.109Z,0.6
2023-01-08T10:11:56.713Z,0.7
2023-01-08T10:12:57.305Z,0.6
2023-01-08T10:13:57.911Z,0.6
2023-01-08T10:14:58.520Z,0.8
2023-01-08T10:15:59.146Z,0.7
2023-01-08T10:16:59.718Z,0.6
2023-01-08T10:18:00.393Z,0.7
2023-01-08T10:19:00.926Z,0.5
2023-01-08T10:20:01.534Z,0.6
2023-01-08T10:21:02.124Z,0.5
2023-01-08T10:22:02.719Z,0.4
2023-01-08T10:23:03.318Z,0.6
2023-01-08T10:24:03.921Z,0.6
2023-01-08T10:25:04.537Z,0.5
2023-01-08T10:26:05.134Z,0.7
2023-01-08T10:27:05.732Z,0.7
2023-01-08T10:28:06.325Z,0.6
2023-01-08T10:29:06.941Z,0.5
2023-01-08T10:30:07.538Z,0.5
2023-01-08T10:31:08.189Z,0.6
2023-01-08T10:32:08.745Z,0.6
2023-01-08T10:33:09.358Z,0.7
2023-01-08T10:34:09.951Z,0.4
2023-01-08T10:35:10.569Z,0.8
2023-01-08T10:36:11.149Z,0.7
2023-01-08T10:37:11.750Z,0.5
2023-01-08T10:38:12.376Z,0.6
2023-01-08T10:39:12.976Z,0.5
2023-01-08T10:40:13.571Z,0.5
2023-01-08T10:41:14.173Z,0.5
2023-01-08T10:42:14.772Z,0.7
2023-01-08T10:43:15.371Z,0.5
2023-01-08T10:44:15.979Z,0.6
2023-01-08T10:45:16.573Z,0.5
2023-01-08T10:46:17.173Z,0.5
2023-01-08T10:47:17.789Z,0.6
2023-01-08T10:48:18.519Z,0.7
2023-01-08T10:49:19.008Z,0.7
2023-01-08T10:50:19.611Z,0.5
2023-01-08T10:51:20.205Z,0.7
2023-01-08T10:52:20.807Z,0.9
2023-01-08T10:53:21.407Z,1.0
2023-01-08T10:54:22.004Z,0.6
2023-01-08T10:55:22.607Z,0.8
2023-01-08T10:56:23.209Z,1.0
2023-01-08T10:57:23.811Z,0.8
2023-01-08T10:58:24.404Z,0.9
2023-01-08T10:59:25.004Z,0.7
2023-01-08T11:00:25.601Z,0.6
2023-01-08T11:01:26.230Z,0.7
2023-01-08T11:02:26.839Z,0.7
2023-01-08T11:03:27.411Z,0.6
2023-01-08T11:04:28.011Z,0.8
2023-01-08T11:05:28.607Z,1.0
2023-01-08T11:06:29.213Z,0.5
2023-01-08T11:07:29.826Z,0.5
2023-01-08T11:08:30.426Z,0.6
2023-01-08T11:09:31.029Z,0.5
2023-01-08T11:10:31.629Z,0.8
2023-01-08T11:11:32.226Z,0.6
2023-01-08T11:12:32.831Z,0.8
2023-01-08T11:13:33.424Z,0.5
2023-01-08T11:14:34.024Z,3.5
2023-01-08T11:15:34.631Z,1.8
2023-01-08T11:16:35.269Z,0.8
2023-01-08T11:17:35.832Z,0.8
2023-01-08T11:18:36.431Z,0.6
2023-01-08T11:19:37.029Z,0.9
2023-01-08T11:20:37.628Z,0.8
2023-01-08T11:21:38.225Z,0.9
2023-01-08T11:22:38.844Z,1.0
2023-01-08T11:23:39.469Z,0.9
2023-01-08T11:24:40.061Z,0.8
2023-01-08T11:25:40.666Z,0.8
2023-01-08T11:26:41.286Z,0.8
2023-01-08T11:27:41.894Z,0.6
2023-01-08T11:28:42.486Z,0.7
2023-01-08T11:29:43.083Z,0.9
2023-01-08T11:30:43.681Z,0.8
2023-01-08T11:31:44.403Z,0.7
2023-01-08T11:32:44.968Z,0.8
2023-01-08T11:33:45.587Z,0.8
2023-01-08T11:34:46.185Z,1.0
2023-01-08T11:35:46.786Z,0.8
2023-01-08T11:36:47.384Z,0.8
2023-01-08T11:37:47.994Z,0.9
2023-01-08T11:38:48.585Z,1.1
2023-01-08T11:39:49.186Z,0.7
2023-01-08T11:40:49.808Z,1.1
2023-01-08T11:41:50.407Z,1.0
2023-01-08T11:42:51.012Z,1.0
2023-01-08T11:43:51.612Z,1.2
2023-01-08T11:44:52.205Z,1.8
2023-01-08T11:45:52.859Z,1.5
2023-01-08T11:46:53.438Z,0.9
2023-01-08T11:47:54.035Z,0.9
2023-01-08T11:48:54.632Z,1.5
2023-01-08T11:49:55.255Z,1.0
2023-01-08T11:50:55.868Z,0.9
2023-01-08T11:51:56.467Z,1.3
2023-01-08T11:52:57.077Z,1.0
2023-01-08T11:53:57.665Z,1.3
2023-01-08T11:54:58.263Z,1.5
2023-01-08T11:55:58.871Z,1.1
2023-01-08T11:56:59.467Z,1.0
2023-01-08T11:58:00.076Z,0.9
2023-01-08T11:59:00.674Z,1.0
2023-01-08T12:00:01.299Z,1.2
2023-01-08T12:01:01.888Z,1.2
2023-01-08T12:02:02.592Z,0.9
2023-01-08T12:03:03.144Z,1.0
2023-01-08T12:04:03.730Z,1.3
2023-01-08T12:05:04.316Z,1.0
2023-01-08T12:06:04.912Z,1.1
2023-01-08T12:07:05.515Z,0.9
2023-01-08T12:08:06.153Z,1.4
2023-01-08T12:09:06.749Z,1.3
2023-01-08T12:10:07.348Z,1.2
2023-01-08T12:11:07.965Z,1.0
2023-01-08T12:12:08.572Z,1.3
2023-01-08T12:13:09.184Z,1.0
2023-01-08T12:14:09.791Z,1.1
2023-01-08T12:15:10.388Z,1.1
2023-01-08T12:16:11.039Z,1.1
2023-01-08T12:17:11.597Z,1.5
2023-01-08T12:18:12.199Z,1.6
2023-01-08T12:19:12.808Z,1.4
2023-01-08T12:20:13.402Z,1.3
2023-01-08T12:21:14.008Z,1.6
2023-01-08T12:22:14.604Z,1.2
2023-01-08T12:23:15.200Z,1.4
2023-01-08T12:24:15.796Z,1.3
2023-01-08T12:25:16.395Z,1.7
2023-01-08T12:26:16.996Z,0.9
2023-01-08T12:27:17.597Z,1.7
2023-01-08T12:28:18.196Z,1.4
2023-01-08T12:29:18.798Z,1.5
2023-01-08T12:30:19.421Z,1.7
2023-01-08T12:31:20.035Z,1.1
2023-01-08T12:32:20.718Z,1.8
2023-01-08T12:33:21.268Z,2.1
2023-01-08T12:34:21.893Z,1.1
2023-01-08T12:35:22.500Z,1.2
2023-01-08T12:36:23.095Z,1.3
2023-01-08T12:37:23.715Z,1.4
2023-01-08T12:38:24.332Z,1.5
2023-01-08T12:39:24.912Z,1.2
2023-01-08T12:40:25.515Z,1.8
2023-01-08T12:41:26.119Z,2.3
2023-01-08T12:42:26.711Z,1.6
2023-01-08T12:43:27.366Z,1.9
2023-01-08T12:44:27.939Z,1.6
2023-01-08T12:45:28.710Z,1.5
2023-01-08T12:46:29.307Z,1.5
2023-01-08T12:47:29.904Z,1.3
2023-01-08T12:48:30.508Z,1.9
2023-01-08T12:49:31.116Z,1.8
2023-01-08T12:50:31.713Z,1.9
2023-01-08T12:51:32.317Z,1.4
2023-01-08T12:52:32.910Z,1.6
2023-01-08T12:53:33.509Z,1.7
2023-01-08T12:54:34.107Z,1.1
2023-01-08T12:55:34.707Z,1.3
2023-01-08T12:56:35.307Z,1.4
2023-01-08T12:57:35.928Z,1.7
2023-01-08T12:58:36.525Z,1.3
2023-01-08T12:59:37.129Z,1.1
2023-01-08T13:00:37.726Z,1.2
2023-01-08T13:01:39.001Z,1.3
2023-01-08T13:02:39.949Z,1.4
2023-01-08T13:03:40.522Z,1.5
2023-01-08T13:04:41.123Z,1.2
2023-01-08T13:05:41.729Z,1.6
2023-01-08T13:06:42.327Z,1.3
2023-01-08T13:07:42.945Z,1.4
2023-01-08T13:08:43.545Z,1.4
2023-01-08T13:09:44.145Z,1.2
2023-01-08T13:10:44.743Z,1.5
2023-01-08T13:11:45.343Z,1.4
2023-01-08T13:12:45.941Z,1.2
2023-01-08T13:13:46.546Z,1.3
2023-01-08T13:14:47.144Z,0.9
2023-01-08T13:15:47.755Z,1.2
2023-01-08T13:16:48.403Z,1.4
2023-01-08T13:17:48.981Z,1.2
2023-01-08T13:18:49.582Z,1.4
2023-01-08T13:19:50.202Z,1.0
2023-01-08T13:20:50.798Z,1.1
2023-01-08T13:21:51.435Z,0.9
2023-01-08T13:22:52.015Z,0.8
2023-01-08T13:23:52.616Z,0.9
2023-01-08T13:24:53.218Z,1.2
2023-01-08T13:25:53.842Z,1.1
2023-01-08T13:26:54.442Z,1.2
2023-01-08T13:27:55.046Z,0.9
2023-01-08T13:28:55.641Z,0.8
2023-01-08T13:29:56.236Z,1.0
2023-01-08T13:30:56.838Z,1.3
2023-01-08T13:31:57.480Z,1.1
2023-01-08T13:32:58.051Z,0.8
2023-01-08T13:33:58.639Z,1.0
2023-01-08T13:34:59.238Z,0.8
2023-01-08T13:35:59.837Z,1.0
2023-01-08T13:37:00.460Z,1.1
2023-01-08T13:38:01.053Z,1.1
2023-01-08T13:39:01.649Z,1.0
2023-01-08T13:40:02.247Z,1.3
2023-01-08T13:41:02.846Z,1.1
2023-01-08T13:42:03.468Z,0.8
2023-01-08T13:43:04.067Z,1.2
2023-01-08T13:44:04.663Z,1.9
2023-01-08T13:45:05.258Z,0.9
2023-01-08T13:46:07.567Z,1.0
2023-01-08T13:47:07.442Z,1.0
2023-01-08T13:48:08.043Z,0.7
2023-01-08T13:49:08.662Z,1.0
2023-01-08T13:50:09.259Z,0.8
2023-01-08T13:51:09.857Z,0.8
2023-01-08T13:52:10.456Z,1.2
2023-01-08T13:53:11.055Z,1.2
2023-01-08T13:54:11.688Z,1.2
2023-01-08T13:55:12.269Z,0.8